sensor_id;sensor_type;location;lat;lon;timestamp;pressure;altitude;pressure_sealevel;temperature;humidity
26083;BME280;13848;49.018;12.078;2023-04-27T00:00:50;97772.97;;;7.96;55.96
26083;BME280;13848;49.018;12.078;2023-04-27T00:03:16;97777.91;;;7.93;55.93
26083;BME280;13848;49.018;12.078;2023-04-27T00:05:41;97777.88;;;7.86;55.73
26083;BME280;13848;49.018;12.078;2023-04-27T00:08:07;97781.59;;;7.79;56.16
26083;BME280;13848;49.018;12.078;2023-04-27T00:10:33;97773.75;;;7.84;55.58
26083;BME280;13848;49.018;12.078;2023-04-27T00:13:01;97775.19;;;7.80;56.01
26083;BME280;13848;49.018;12.078;2023-04-27T00:15:27;97768.16;;;7.72;55.98
26083;BME280;13848;49.018;12.078;2023-04-27T00:17:53;97775.19;;;7.80;55.96
26083;BME280;13848;49.018;12.078;2023-04-27T00:20:19;97772.50;;;7.80;56.31
26083;BME280;13848;49.018;12.078;2023-04-27T00:22:46;97771.69;;;7.86;55.63
26083;BME280;13848;49.018;12.078;2023-04-27T00:25:12;97767.56;;;7.83;55.81
26083;BME280;13848;49.018;12.078;2023-04-27T00:27:38;97777.44;;;7.76;56.10
26083;BME280;13848;49.018;12.078;2023-04-27T00:30:06;97767.13;;;7.80;56.38
26083;BME280;13848;49.018;12.078;2023-04-27T00:32:32;97769.81;;;7.80;56.97
26083;BME280;13848;49.018;12.078;2023-04-27T00:34:58;97766.75;;;7.83;57.07
26083;BME280;13848;49.018;12.078;2023-04-27T00:37:24;97768.97;;;7.72;56.55
26083;BME280;13848;49.018;12.078;2023-04-27T00:39:50;97760.25;;;7.57;57.19
26083;BME280;13848;49.018;12.078;2023-04-27T00:42:16;97766.28;;;7.72;56.78
26083;BME280;13848;49.018;12.078;2023-04-27T00:44:42;97773.31;;;7.73;57.06
26083;BME280;13848;49.018;12.078;2023-04-27T00:47:10;97771.44;;;7.67;57.22
26083;BME280;13848;49.018;12.078;2023-04-27T00:49:36;97768.34;;;7.70;57.40
26083;BME280;13848;49.018;12.078;2023-04-27T00:52:02;97771.25;;;7.76;56.91
26083;BME280;13848;49.018;12.078;2023-04-27T00:54:29;97774.16;;;7.81;56.90
26083;BME280;13848;49.018;12.078;2023-04-27T00:56:55;97771.25;;;7.76;57.29
26083;BME280;13848;49.018;12.078;2023-04-27T00:59:20;97770.41;;;7.68;57.25
26083;BME280;13848;49.018;12.078;2023-04-27T01:01:47;97773.69;;;7.64;57.47
26083;BME280;13848;49.018;12.078;2023-04-27T01:04:15;97766.66;;;7.63;57.75
26083;BME280;13848;49.018;12.078;2023-04-27T01:06:41;97769.13;;;7.64;58.06
26083;BME280;13848;49.018;12.078;2023-04-27T01:09:07;97768.31;;;7.64;57.96
26083;BME280;13848;49.018;12.078;2023-04-27T01:11:33;97767.50;;;7.63;57.84
26083;BME280;13848;49.018;12.078;2023-04-27T01:14:02;97761.50;;;7.61;57.96
26083;BME280;13848;49.018;12.078;2023-04-27T01:16:28;97764.19;;;7.61;57.64
26083;BME280;13848;49.018;12.078;2023-04-27T01:18:54;97756.16;;;7.68;56.67
26083;BME280;13848;49.018;12.078;2023-04-27T01:21:21;97756.75;;;7.63;57.10
26083;BME280;13848;49.018;12.078;2023-04-27T01:23:49;97754.72;;;7.65;57.04
26083;BME280;13848;49.018;12.078;2023-04-27T01:26:14;97750.13;;;7.59;56.96
26083;BME280;13848;49.018;12.078;2023-04-27T01:28:40;97744.09;;;7.37;57.33
26083;BME280;13848;49.018;12.078;2023-04-27T01:31:06;97756.19;;;7.27;57.84
26083;BME280;13848;49.018;12.078;2023-04-27T01:33:32;97756.19;;;7.27;58.00
26083;BME280;13848;49.018;12.078;2023-04-27T01:35:58;97755.88;;;7.43;57.60
26083;BME280;13848;49.018;12.078;2023-04-27T01:38:24;97756.72;;;7.50;57.95
26083;BME280;13848;49.018;12.078;2023-04-27T01:40:52;97752.63;;;7.54;58.05
26083;BME280;13848;49.018;12.078;2023-04-27T01:43:18;97754.44;;;7.54;57.58
26083;BME280;13848;49.018;12.078;2023-04-27T01:45:43;97754.84;;;7.51;57.81
26083;BME280;13848;49.018;12.078;2023-04-27T01:48:09;97764.53;;;7.45;57.80
26083;BME280;13848;49.018;12.078;2023-04-27T01:50:35;97763.25;;;7.41;58.21
26083;BME280;13848;49.018;12.078;2023-04-27T01:53:01;97765.56;;;7.44;58.25
26083;BME280;13848;49.018;12.078;2023-04-27T01:55:27;97758.13;;;7.46;58.29
26083;BME280;13848;49.018;12.078;2023-04-27T01:57:55;97768.66;;;7.47;57.75
26083;BME280;13848;49.018;12.078;2023-04-27T02:00:21;97765.56;;;7.44;57.39
26083;BME280;13848;49.018;12.078;2023-04-27T02:02:47;97773.19;;;7.47;58.45
26083;BME280;13848;49.018;12.078;2023-04-27T02:05:12;97771.16;;;7.49;57.67
26083;BME280;13848;49.018;12.078;2023-04-27T02:07:38;97781.25;;;7.47;57.79
26083;BME280;13848;49.018;12.078;2023-04-27T02:10:05;97775.63;;;7.35;58.68
26083;BME280;13848;49.018;12.078;2023-04-27T02:12:31;97767.81;;;7.40;58.86
26083;BME280;13848;49.018;12.078;2023-04-27T02:14:59;97766.19;;;7.46;58.96
26083;BME280;13848;49.018;12.078;2023-04-27T02:17:25;97775.44;;;7.37;58.81
26083;BME280;13848;49.018;12.078;2023-04-27T02:19:51;97777.94;;;7.45;59.36
26083;BME280;13848;49.018;12.078;2023-04-27T02:22:16;97779.38;;;7.47;58.82
26083;BME280;13848;49.018;12.078;2023-04-27T02:24:42;97782.06;;;7.47;59.35
26083;BME280;13848;49.018;12.078;2023-04-27T02:27:08;97783.75;;;7.49;59.12
26083;BME280;13848;49.018;12.078;2023-04-27T02:29:34;97776.53;;;7.49;59.03
26083;BME280;13848;49.018;12.078;2023-04-27T02:32:01;97773.03;;;7.49;59.24
26083;BME280;13848;49.018;12.078;2023-04-27T02:34:27;97778.97;;;7.44;59.37
26083;BME280;13848;49.018;12.078;2023-04-27T02:36:53;97780.59;;;7.38;59.54
26083;BME280;13848;49.018;12.078;2023-04-27T02:39:19;97776.06;;;7.39;59.01
26083;BME280;13848;49.018;12.078;2023-04-27T02:41:45;97786.00;;;7.45;59.14
26083;BME280;13848;49.018;12.078;2023-04-27T02:44:11;97781.44;;;7.39;58.27
26083;BME280;13848;49.018;12.078;2023-04-27T02:46:37;97780.59;;;7.38;58.53
26083;BME280;13848;49.018;12.078;2023-04-27T02:49:04;97783.66;;;7.35;57.23
26083;BME280;13848;49.018;12.078;2023-04-27T02:51:30;97778.91;;;7.31;58.13
26083;BME280;13848;49.018;12.078;2023-04-27T02:53:56;97785.28;;;7.30;57.32
26083;BME280;13848;49.018;12.078;2023-04-27T02:56:22;97783.41;;;7.24;56.96
26083;BME280;13848;49.018;12.078;2023-04-27T02:58:48;97778.44;;;7.20;56.54
26083;BME280;13848;49.018;12.078;2023-04-27T03:01:14;97783.94;;;7.12;57.53
26083;BME280;13848;49.018;12.078;2023-04-27T03:03:40;97787.91;;;7.16;56.95
26083;BME280;13848;49.018;12.078;2023-04-27T03:06:07;97789.31;;;7.12;57.59
26083;BME280;13848;49.018;12.078;2023-04-27T03:08:33;97790.34;;;7.11;57.14
26083;BME280;13848;49.018;12.078;2023-04-27T03:10:59;97788.69;;;7.10;57.41
26083;BME280;13848;49.018;12.078;2023-04-27T03:13:25;97784.94;;;7.05;57.28
26083;BME280;13848;49.018;12.078;2023-04-27T03:15:51;97789.97;;;7.14;56.97
26083;BME280;13848;49.018;12.078;2023-04-27T03:18:17;97792.81;;;7.13;56.78
26083;BME280;13848;49.018;12.078;2023-04-27T03:20:43;97789.72;;;7.09;56.78
26083;BME280;13848;49.018;12.078;2023-04-27T03:23:10;97792.16;;;7.04;57.42
26083;BME280;13848;49.018;12.078;2023-04-27T03:25:36;97790.75;;;7.08;57.66
26083;BME280;13848;49.018;12.078;2023-04-27T03:28:02;97791.13;;;7.05;57.49
26083;BME280;13848;49.018;12.078;2023-04-27T03:30:28;97789.84;;;7.01;58.10
26083;BME280;13848;49.018;12.078;2023-04-27T03:32:54;97791.06;;;6.92;58.39
26083;BME280;13848;49.018;12.078;2023-04-27T03:35:20;97792.91;;;6.91;58.68
26083;BME280;13848;49.018;12.078;2023-04-27T03:37:46;97791.91;;;6.99;57.94
26083;BME280;13848;49.018;12.078;2023-04-27T03:40:13;97797.69;;;6.96;58.34
26083;BME280;13848;49.018;12.078;2023-04-27T03:42:39;97802.41;;;6.94;58.35
26083;BME280;13848;49.018;12.078;2023-04-27T03:45:06;97808.13;;;6.84;58.93
26083;BME280;13848;49.018;12.078;2023-04-27T03:47:32;97807.25;;;6.84;59.36
26083;BME280;13848;49.018;12.078;2023-04-27T03:49:58;97804.22;;;6.87;59.22
26083;BME280;13848;49.018;12.078;2023-04-27T03:52:24;97809.72;;;6.79;59.33
26083;BME280;13848;49.018;12.078;2023-04-27T03:54:50;97806.25;;;6.85;59.66
26083;BME280;13848;49.018;12.078;2023-04-27T03:57:18;97816.28;;;6.76;59.40
26083;BME280;13848;49.018;12.078;2023-04-27T03:59:43;97811.50;;;6.72;59.32
26083;BME280;13848;49.018;12.078;2023-04-27T04:02:09;97820.19;;;6.74;59.33
26083;BME280;13848;49.018;12.078;2023-04-27T04:04:35;97821.41;;;6.71;59.62
26083;BME280;13848;49.018;12.078;2023-04-27T04:07:01;97818.47;;;6.66;59.41
26083;BME280;13848;49.018;12.078;2023-04-27T04:09:27;97827.97;;;6.69;59.51
26083;BME280;13848;49.018;12.078;2023-04-27T04:11:53;97836.66;;;6.71;60.07
26083;BME280;13848;49.018;12.078;2023-04-27T04:14:20;97826.94;;;6.70;59.83
26083;BME280;13848;49.018;12.078;2023-04-27T04:16:46;97834.16;;;6.69;59.79
26083;BME280;13848;49.018;12.078;2023-04-27T04:19:12;97832.56;;;6.75;59.19
26083;BME280;13848;49.018;12.078;2023-04-27T04:21:38;97828.84;;;6.76;60.08
26083;BME280;13848;49.018;12.078;2023-04-27T04:24:05;97832.94;;;6.72;59.18
26083;BME280;13848;49.018;12.078;2023-04-27T04:26:31;97838.53;;;6.98;61.54
26083;BME280;13848;49.018;12.078;2023-04-27T04:28:57;97840.69;;;7.16;59.80
26083;BME280;13848;49.018;12.078;2023-04-27T04:31:24;97842.41;;;7.24;60.51
26083;BME280;13848;49.018;12.078;2023-04-27T04:33:50;97843.66;;;7.28;60.49
26083;BME280;13848;49.018;12.078;2023-04-27T04:36:16;97849.91;;;7.35;60.07
26083;BME280;13848;49.018;12.078;2023-04-27T04:38:42;97849.91;;;7.35;59.91
26083;BME280;13848;49.018;12.078;2023-04-27T04:41:08;97852.97;;;7.32;60.15
26083;BME280;13848;49.018;12.078;2023-04-27T04:43:33;97852.41;;;7.36;60.11
26083;BME280;13848;49.018;12.078;2023-04-27T04:45:59;97856.34;;;7.47;60.23
26083;BME280;13848;49.018;12.078;2023-04-27T04:48:27;97861.72;;;7.47;59.75
26083;BME280;13848;49.018;12.078;2023-04-27T04:50:53;97858.03;;;7.48;59.64
26083;BME280;13848;49.018;12.078;2023-04-27T04:53:18;97853.22;;;7.37;59.97
26083;BME280;13848;49.018;12.078;2023-04-27T04:55:44;97858.22;;;7.46;58.98
26083;BME280;13848;49.018;12.078;2023-04-27T04:58:10;97861.28;;;7.37;59.10
26083;BME280;13848;49.018;12.078;2023-04-27T05:00:36;97853.22;;;7.37;60.02
26083;BME280;13848;49.018;12.078;2023-04-27T05:03:02;97854.91;;;7.44;60.33
26083;BME280;13848;49.018;12.078;2023-04-27T05:05:29;97860.22;;;7.31;59.26
26083;BME280;13848;49.018;12.078;2023-04-27T05:07:55;97849.81;;;7.22;58.79
26083;BME280;13848;49.018;12.078;2023-04-27T05:10:21;97845.53;;;6.99;59.65
26083;BME280;13848;49.018;12.078;2023-04-27T05:12:47;97859.56;;;7.01;59.56
26083;BME280;13848;49.018;12.078;2023-04-27T05:15:13;97856.59;;;7.17;59.32
26083;BME280;13848;49.018;12.078;2023-04-27T05:17:39;97853.66;;;7.12;59.70
26083;BME280;13848;49.018;12.078;2023-04-27T05:20:06;97851.22;;;7.17;59.92
26083;BME280;13848;49.018;12.078;2023-04-27T05:22:34;97850.84;;;7.20;60.10
26083;BME280;13848;49.018;12.078;2023-04-27T05:24:59;97844.16;;;7.38;59.32
26083;BME280;13848;49.018;12.078;2023-04-27T05:27:25;97861.09;;;7.45;58.66
26083;BME280;13848;49.018;12.078;2023-04-27T05:29:51;97861.34;;;7.50;58.96
26083;BME280;13848;49.018;12.078;2023-04-27T05:32:17;97857.00;;;7.49;58.99
26083;BME280;13848;49.018;12.078;2023-04-27T05:34:43;97862.34;;;7.42;58.98
26083;BME280;13848;49.018;12.078;2023-04-27T05:37:09;97860.28;;;7.44;58.66
26083;BME280;13848;49.018;12.078;2023-04-27T05:39:37;97864.03;;;7.50;58.58
26083;BME280;13848;49.018;12.078;2023-04-27T05:42:04;97861.41;;;7.63;58.43
26083;BME280;13848;49.018;12.078;2023-04-27T05:44:30;97864.91;;;7.64;58.86
26083;BME280;13848;49.018;12.078;2023-04-27T05:46:56;97871.13;;;7.71;58.37
26083;BME280;13848;49.018;12.078;2023-04-27T05:49:22;97877.75;;;7.68;58.84
26083;BME280;13848;49.018;12.078;2023-04-27T05:51:48;97876.31;;;7.72;58.61
26083;BME280;13848;49.018;12.078;2023-04-27T05:54:14;97876.09;;;7.67;58.28
26083;BME280;13848;49.018;12.078;2023-04-27T05:56:41;97877.56;;;7.77;59.01
26083;BME280;13848;49.018;12.078;2023-04-27T05:59:07;97870.41;;;7.84;58.69
26083;BME280;13848;49.018;12.078;2023-04-27T06:01:33;97879.47;;;7.83;58.48
26083;BME280;13848;49.018;12.078;2023-04-27T06:03:59;97880.34;;;7.90;58.33
26083;BME280;13848;49.018;12.078;2023-04-27T06:06:25;97872.94;;;8.05;58.15
26083;BME280;13848;49.018;12.078;2023-04-27T06:08:51;97881.00;;;8.05;58.14
26083;BME280;13848;49.018;12.078;2023-04-27T06:11:17;97881.22;;;8.10;58.10
26083;BME280;13848;49.018;12.078;2023-04-27T06:13:44;97883.06;;;8.03;58.35
26083;BME280;13848;49.018;12.078;2023-04-27T06:16:10;97884.97;;;8.16;58.40
26083;BME280;13848;49.018;12.078;2023-04-27T06:18:36;97876.31;;;8.20;58.39
26083;BME280;13848;49.018;12.078;2023-04-27T06:21:02;97882.94;;;8.18;57.62
26083;BME280;13848;49.018;12.078;2023-04-27T06:23:28;97885.22;;;8.27;58.14
26083;BME280;13848;49.018;12.078;2023-04-27T06:25:54;97886.47;;;8.32;57.85
26083;BME280;13848;49.018;12.078;2023-04-27T06:28:20;97892.41;;;8.20;57.94
26083;BME280;13848;49.018;12.078;2023-04-27T06:30:47;97889.50;;;8.15;58.17
26083;BME280;13848;49.018;12.078;2023-04-27T06:33:13;97892.81;;;8.17;58.04
26083;BME280;13848;49.018;12.078;2023-04-27T06:35:39;97890.81;;;8.33;58.12
26083;BME280;13848;49.018;12.078;2023-04-27T06:38:05;97891.72;;;8.53;57.76
26083;BME280;13848;49.018;12.078;2023-04-27T06:40:31;97895.69;;;8.70;57.81
26083;BME280;13848;49.018;12.078;2023-04-27T06:42:56;97899.63;;;8.88;57.30
26083;BME280;13848;49.018;12.078;2023-04-27T06:45:23;97903.38;;;9.06;57.45
26083;BME280;13848;49.018;12.078;2023-04-27T06:47:50;97897.59;;;9.16;57.18
26083;BME280;13848;49.018;12.078;2023-04-27T06:50:16;97895.91;;;9.15;56.90
26083;BME280;13848;49.018;12.078;2023-04-27T06:52:42;97893.41;;;9.20;57.03
26083;BME280;13848;49.018;12.078;2023-04-27T06:55:08;97890.53;;;9.35;56.79
26083;BME280;13848;49.018;12.078;2023-04-27T06:57:34;97892.59;;;9.40;56.34
26083;BME280;13848;49.018;12.078;2023-04-27T07:00:00;97893.84;;;9.24;56.36
26083;BME280;13848;49.018;12.078;2023-04-27T07:02:26;97894.25;;;9.34;56.27
26083;BME280;13848;49.018;12.078;2023-04-27T07:04:53;97895.91;;;9.42;55.66
26083;BME280;13848;49.018;12.078;2023-04-27T07:07:19;97894.06;;;9.22;55.71
26083;BME280;13848;49.018;12.078;2023-04-27T07:09:45;97901.88;;;9.57;55.29
26083;BME280;13848;49.018;12.078;2023-04-27T07:12:11;97899.59;;;9.60;55.25
26083;BME280;13848;49.018;12.078;2023-04-27T07:14:37;97905.38;;;10.35;56.73
26083;BME280;13848;49.018;12.078;2023-04-27T07:17:03;97911.59;;;10.36;53.63
26083;BME280;13848;49.018;12.078;2023-04-27T07:19:29;97901.69;;;10.17;53.39
26083;BME280;13848;49.018;12.078;2023-04-27T07:21:56;97902.78;;;10.09;53.48
26083;BME280;13848;49.018;12.078;2023-04-27T07:24:22;97909.38;;;10.13;53.40
26083;BME280;13848;49.018;12.078;2023-04-27T07:26:48;97902.78;;;10.02;53.42
26083;BME280;13848;49.018;12.078;2023-04-27T07:29:14;97897.88;;;9.79;53.61
26083;BME280;13848;49.018;12.078;2023-04-27T07:31:40;97900.69;;;10.11;53.42
26083;BME280;13848;49.018;12.078;2023-04-27T07:34:06;97901.28;;;10.26;53.22
26083;BME280;13848;49.018;12.078;2023-04-27T07:36:32;97905.41;;;10.29;52.76
26083;BME280;13848;49.018;12.078;2023-04-27T07:38:59;97900.44;;;10.19;52.94
26083;BME280;13848;49.018;12.078;2023-04-27T07:41:25;97898.16;;;10.29;53.78
26083;BME280;13848;49.018;12.078;2023-04-27T07:43:51;97895.88;;;10.64;52.71
26083;BME280;13848;49.018;12.078;2023-04-27T07:46:17;97887.91;;;10.76;53.23
26083;BME280;13848;49.018;12.078;2023-04-27T07:48:43;97895.31;;;10.87;52.48
26083;BME280;13848;49.018;12.078;2023-04-27T07:51:09;97889.34;;;11.10;52.00
26083;BME280;13848;49.018;12.078;2023-04-27T07:53:36;97894.44;;;10.93;50.29
26083;BME280;13848;49.018;12.078;2023-04-27T07:56:06;97902.09;;;10.65;49.79
26083;BME280;13848;49.018;12.078;2023-04-27T07:58:32;97896.59;;;10.85;51.55
26083;BME280;13848;49.018;12.078;2023-04-27T08:00:58;97896.97;;;10.88;51.10
26083;BME280;13848;49.018;12.078;2023-04-27T08:03:24;97905.78;;;10.71;50.54
26083;BME280;13848;49.018;12.078;2023-04-27T08:05:49;97903.50;;;10.74;50.16
26083;BME280;13848;49.018;12.078;2023-04-27T08:08:15;97900.19;;;11.04;49.61
26083;BME280;13848;49.018;12.078;2023-04-27T08:10:42;97903.94;;;11.28;49.44
26083;BME280;13848;49.018;12.078;2023-04-27T08:13:09;97905.78;;;11.52;49.22
26083;BME280;13848;49.018;12.078;2023-04-27T08:15:35;97909.69;;;11.06;46.54
26083;BME280;13848;49.018;12.078;2023-04-27T08:18:01;97903.97;;;10.96;47.27
26083;BME280;13848;49.018;12.078;2023-04-27T08:20:27;97904.41;;;10.93;47.79
26083;BME280;13848;49.018;12.078;2023-04-27T08:22:53;97906.50;;;10.91;47.27
26083;BME280;13848;49.018;12.078;2023-04-27T08:25:19;97906.88;;;10.95;47.53
26083;BME280;13848;49.018;12.078;2023-04-27T08:27:45;97905.34;;;11.05;47.84
26083;BME280;13848;49.018;12.078;2023-04-27T08:30:13;97905.78;;;11.52;48.09
26083;BME280;13848;49.018;12.078;2023-04-27T08:32:39;97912.84;;;11.03;46.23
26083;BME280;13848;49.018;12.078;2023-04-27T08:35:05;97907.56;;;10.83;47.40
26083;BME280;13848;49.018;12.078;2023-04-27T08:37:31;97910.22;;;10.90;46.81
26083;BME280;13848;49.018;12.078;2023-04-27T08:39:57;97905.78;;;10.71;47.27
26083;BME280;13848;49.018;12.078;2023-04-27T08:42:23;97918.50;;;10.95;46.55
26083;BME280;13848;49.018;12.078;2023-04-27T08:44:49;97907.75;;;11.20;46.41
26083;BME280;13848;49.018;12.078;2023-04-27T08:47:16;97904.72;;;11.53;45.25
26083;BME280;13848;49.018;12.078;2023-04-27T08:49:42;97907.84;;;11.32;45.97
26083;BME280;13848;49.018;12.078;2023-04-27T08:52:12;97908.13;;;11.49;46.49
26083;BME280;13848;49.018;12.078;2023-04-27T08:54:38;97904.94;;;11.52;46.01
26083;BME280;13848;49.018;12.078;2023-04-27T08:57:08;97898.91;;;11.75;46.12
26083;BME280;13848;49.018;12.078;2023-04-27T08:59:34;97897.13;;;12.05;46.23
26083;BME280;13848;49.018;12.078;2023-04-27T09:02:00;97895.22;;;12.12;43.84
26083;BME280;13848;49.018;12.078;2023-04-27T09:04:36;97907.25;;;11.73;44.35
26083;BME280;13848;49.018;12.078;2023-04-27T09:07:09;97905.88;;;12.07;45.63
26083;BME280;13848;49.018;12.078;2023-04-27T09:09:35;97897.06;;;12.30;44.36
26083;BME280;13848;49.018;12.078;2023-04-27T09:12:01;97914.59;;;12.39;44.57
26083;BME280;13848;49.018;12.078;2023-04-27T09:14:38;97905.72;;;12.81;43.72
26083;BME280;13848;49.018;12.078;2023-04-27T09:17:04;97903.41;;;12.96;43.85
26083;BME280;13848;49.018;12.078;2023-04-27T09:19:29;97906.94;;;13.38;44.15
26083;BME280;13848;49.018;12.078;2023-04-27T09:22:04;97899.38;;;13.99;44.73
26083;BME280;13848;49.018;12.078;2023-04-27T09:24:30;97911.94;;;14.28;43.45
26083;BME280;13848;49.018;12.078;2023-04-27T09:26:56;97899.63;;;14.37;43.14
26083;BME280;13848;49.018;12.078;2023-04-27T09:29:31;97905.66;;;12.87;42.63
26083;BME280;13848;49.018;12.078;2023-04-27T09:31:57;97902.50;;;13.02;43.00
26083;BME280;13848;49.018;12.078;2023-04-27T09:34:23;97896.97;;;13.09;40.90
26083;BME280;13848;49.018;12.078;2023-04-27T09:36:49;97899.16;;;13.30;42.29
26083;BME280;13848;49.018;12.078;2023-04-27T09:39:17;97901.06;;;13.65;42.63
26083;BME280;13848;49.018;12.078;2023-04-27T09:41:44;97896.69;;;14.39;42.95
26083;BME280;13848;49.018;12.078;2023-04-27T09:44:10;97897.31;;;14.70;40.74
26083;BME280;13848;49.018;12.078;2023-04-27T09:46:36;97891.59;;;14.54;41.35
26083;BME280;13848;49.018;12.078;2023-04-27T09:49:03;97885.84;;;14.39;39.61
26083;BME280;13848;49.018;12.078;2023-04-27T09:51:29;97886.66;;;14.80;40.19
26083;BME280;13848;49.018;12.078;2023-04-27T09:53:57;97888.50;;;15.25;40.93
26083;BME280;13848;49.018;12.078;2023-04-27T09:56:35;97891.44;;;15.06;38.15
26083;BME280;13848;49.018;12.078;2023-04-27T09:59:19;97883.72;;;14.98;39.64
26083;BME280;13848;49.018;12.078;2023-04-27T10:01:50;97875.16;;;15.40;38.32
26083;BME280;13848;49.018;12.078;2023-04-27T10:04:40;97882.53;;;14.37;37.70
26083;BME280;13848;49.018;12.078;2023-04-27T10:07:11;97868.47;;;14.11;37.20
26083;BME280;13848;49.018;12.078;2023-04-27T10:09:40;97863.88;;;14.52;37.82
26083;BME280;13848;49.018;12.078;2023-04-27T10:12:16;97864.28;;;15.23;36.44
26083;BME280;13848;49.018;12.078;2023-04-27T10:14:52;97862.44;;;14.78;36.79
26083;BME280;13848;49.018;12.078;2023-04-27T10:17:23;97856.06;;;15.68;37.13
26083;BME280;13848;49.018;12.078;2023-04-27T10:19:53;97861.63;;;15.62;35.39
26083;BME280;13848;49.018;12.078;2023-04-27T10:22:20;97869.59;;;14.68;36.01
26083;BME280;13848;49.018;12.078;2023-04-27T10:24:48;97860.84;;;14.37;35.74
26083;BME280;13848;49.018;12.078;2023-04-27T10:27:17;97859.88;;;14.43;36.53
26083;BME280;13848;49.018;12.078;2023-04-27T10:29:45;97860.13;;;14.70;36.99
26083;BME280;13848;49.018;12.078;2023-04-27T10:32:12;97853.72;;;14.76;37.07
26083;BME280;13848;49.018;12.078;2023-04-27T10:34:38;97856.19;;;14.78;36.73
26083;BME280;13848;49.018;12.078;2023-04-27T10:37:05;97850.47;;;14.91;37.52
26083;BME280;13848;49.018;12.078;2023-04-27T10:39:34;97852.44;;;15.12;37.21
26083;BME280;13848;49.018;12.078;2023-04-27T10:42:01;97853.06;;;14.69;36.83
26083;BME280;13848;49.018;12.078;2023-04-27T10:44:29;97843.72;;;14.48;37.47
26083;BME280;13848;49.018;12.078;2023-04-27T10:46:56;97841.72;;;14.89;38.47
26083;BME280;13848;49.018;12.078;2023-04-27T10:49:23;97839.66;;;15.63;37.70
26083;BME280;13848;49.018;12.078;2023-04-27T10:51:50;97839.13;;;16.05;37.17
26083;BME280;13848;49.018;12.078;2023-04-27T10:54:16;97831.28;;;16.58;37.59
26083;BME280;13848;49.018;12.078;2023-04-27T10:56:42;97838.75;;;16.18;34.11
26083;BME280;13848;49.018;12.078;2023-04-27T10:59:08;97843.31;;;15.18;34.35
26083;BME280;13848;49.018;12.078;2023-04-27T11:01:35;97838.94;;;15.17;35.04
26083;BME280;13848;49.018;12.078;2023-04-27T11:04:02;97834.53;;;15.84;34.58
26083;BME280;13848;49.018;12.078;2023-04-27T11:06:28;97836.78;;;16.36;34.80
26083;BME280;13848;49.018;12.078;2023-04-27T11:08:55;97822.59;;;16.83;33.92
26083;BME280;13848;49.018;12.078;2023-04-27T11:11:21;97825.53;;;16.76;32.93
26083;BME280;13848;49.018;12.078;2023-04-27T11:13:48;97829.00;;;16.22;33.35
26083;BME280;13848;49.018;12.078;2023-04-27T11:16:15;97823.63;;;16.77;34.04
26083;BME280;13848;49.018;12.078;2023-04-27T11:18:42;97817.03;;;16.72;33.94
26083;BME280;13848;49.018;12.078;2023-04-27T11:21:10;97823.69;;;17.19;34.89
26083;BME280;13848;49.018;12.078;2023-04-27T11:23:36;97829.22;;;17.71;33.85
26083;BME280;13848;49.018;12.078;2023-04-27T11:26:08;97825.34;;;17.62;33.29
26083;BME280;13848;49.018;12.078;2023-04-27T11:28:34;97825.97;;;17.69;32.26
26083;BME280;13848;49.018;12.078;2023-04-27T11:31:00;97830.56;;;17.26;32.07
26083;BME280;13848;49.018;12.078;2023-04-27T11:33:27;97819.28;;;17.50;32.19
26083;BME280;13848;49.018;12.078;2023-04-27T11:35:54;97816.44;;;17.29;32.54
26083;BME280;13848;49.018;12.078;2023-04-27T11:38:20;97824.38;;;16.99;31.81
26083;BME280;13848;49.018;12.078;2023-04-27T11:40:57;97835.19;;;16.40;31.97
26083;BME280;13848;49.018;12.078;2023-04-27T11:43:24;97829.13;;;16.33;32.53
26083;BME280;13848;49.018;12.078;2023-04-27T11:45:50;97830.81;;;16.39;32.21
26083;BME280;13848;49.018;12.078;2023-04-27T11:48:16;97824.44;;;16.77;32.22
26083;BME280;13848;49.018;12.078;2023-04-27T11:50:45;97818.63;;;17.33;32.43
26083;BME280;13848;49.018;12.078;2023-04-27T11:53:12;97823.50;;;16.93;32.54
26083;BME280;13848;49.018;12.078;2023-04-27T11:55:39;97822.72;;;17.72;33.54
26083;BME280;13848;49.018;12.078;2023-04-27T11:58:05;97821.81;;;18.14;32.20
26083;BME280;13848;49.018;12.078;2023-04-27T12:00:31;97827.19;;;17.94;31.97
26083;BME280;13848;49.018;12.078;2023-04-27T12:02:57;97821.97;;;18.65;32.80
26083;BME280;13848;49.018;12.078;2023-04-27T12:05:23;97814.94;;;19.05;32.33
26083;BME280;13848;49.018;12.078;2023-04-27T12:07:49;97817.66;;;18.69;30.42
26083;BME280;13848;49.018;12.078;2023-04-27T12:10:18;97821.94;;;18.55;30.29
26083;BME280;13848;49.018;12.078;2023-04-27T12:12:44;97823.31;;;18.52;31.78
26083;BME280;13848;49.018;12.078;2023-04-27T12:15:10;97817.09;;;18.67;31.08
26083;BME280;13848;49.018;12.078;2023-04-27T12:17:37;97816.03;;;19.04;30.87
26083;BME280;13848;49.018;12.078;2023-04-27T12:20:04;97825.88;;;18.79;30.17
26083;BME280;13848;49.018;12.078;2023-04-27T12:22:30;97819.31;;;18.85;29.86
26083;BME280;13848;49.018;12.078;2023-04-27T12:24:56;97818.19;;;18.81;28.53
26083;BME280;13848;49.018;12.078;2023-04-27T12:27:23;97818.22;;;19.07;28.69
26083;BME280;13848;49.018;12.078;2023-04-27T12:29:49;97816.84;;;18.69;29.48
26083;BME280;13848;49.018;12.078;2023-04-27T12:32:15;97809.94;;;18.56;29.49
26083;BME280;13848;49.018;12.078;2023-04-27T12:34:41;97816.81;;;17.91;29.72
26083;BME280;13848;49.018;12.078;2023-04-27T12:37:07;97809.09;;;17.72;30.60
26083;BME280;13848;49.018;12.078;2023-04-27T12:39:33;97809.84;;;17.63;29.80
26083;BME280;13848;49.018;12.078;2023-04-27T12:41:59;97799.53;;;17.33;30.32
26083;BME280;13848;49.018;12.078;2023-04-27T12:44:26;97808.03;;;17.78;31.25
26083;BME280;13848;49.018;12.078;2023-04-27T12:46:52;97806.50;;;17.98;29.65
26083;BME280;13848;49.018;12.078;2023-04-27T12:49:18;97799.13;;;17.56;30.80
26083;BME280;13848;49.018;12.078;2023-04-27T12:51:44;97801.59;;;17.15;30.69